sensor_id;sensor_type;location;lat;lon;timestamp;temperature;humidity
28010;DHT22;15334;49.494;8.410;2023-02-02T00:01:39;8.10;99.90
28010;DHT22;15334;49.494;8.410;2023-02-02T00:04:15;8.10;99.90
28010;DHT22;15334;49.494;8.410;2023-02-02T00:06:47;8.10;99.90
28010;DHT22;15334;49.494;8.410;2023-02-02T00:09:17;8.10;99.90
28010;DHT22;15334;49.494;8.410;2023-02-02T00:11:47;8.10;99.90
28010;DHT22;15334;49.494;8.410;2023-02-02T00:14:17;8.10;99.90
28010;DHT22;15334;49.494;8.410;2023-02-02T00:16:46;8.10;99.90
28010;DHT22;15334;49.494;8.410;2023-02-02T00:19:20;8.10;99.90
28010;DHT22;15334;49.494;8.410;2023-02-02T00:21:50;8.10;99.90
28010;DHT22;15334;49.494;8.410;2023-02-02T00:24:19;8.10;99.90
28010;DHT22;15334;49.494;8.410;2023-02-02T00:26:49;8.10;99.90
28010;DHT22;15334;49.494;8.410;2023-02-02T00:29:19;8.10;99.90
28010;DHT22;15334;49.494;8.410;2023-02-02T00:31:47;8.20;99.90
28010;DHT22;15334;49.494;8.410;2023-02-02T00:34:16;8.20;99.90
28010;DHT22;15334;49.494;8.410;2023-02-02T00:36:46;8.20;99.90
28010;DHT22;15334;49.494;8.410;2023-02-02T00:39:18;8.20;99.90
28010;DHT22;15334;49.494;8.410;2023-02-02T00:41:47;8.20;99.90
28010;DHT22;15334;49.494;8.410;2023-02-02T00:44:15;8.20;99.90
28010;DHT22;15334;49.494;8.410;2023-02-02T00:47:01;8.20;99.90
28010;DHT22;15334;49.494;8.410;2023-02-02T00:49:29;8.20;99.90
28010;DHT22;15334;49.494;8.410;2023-02-02T00:51:58;8.20;99.90
28010;DHT22;15334;49.494;8.410;2023-02-02T00:54:27;8.20;99.90
28010;DHT22;15334;49.494;8.410;2023-02-02T00:56:55;8.20;99.90
28010;DHT22;15334;49.494;8.410;2023-02-02T00:59:23;8.20;99.90
28010;DHT22;15334;49.494;8.410;2023-02-02T01:01:51;8.20;99.90
28010;DHT22;15334;49.494;8.410;2023-02-02T01:04:21;8.20;99.90
28010;DHT22;15334;49.494;8.410;2023-02-02T01:06:49;8.20;99.90
28010;DHT22;15334;49.494;8.410;2023-02-02T01:09:19;8.20;99.90
28010;DHT22;15334;49.494;8.410;2023-02-02T01:11:47;8.20;99.90
28010;DHT22;15334;49.494;8.410;2023-02-02T01:14:15;8.20;99.90
28010;DHT22;15334;49.494;8.410;2023-02-02T01:16:43;8.30;99.90
28010;DHT22;15334;49.494;8.410;2023-02-02T01:19:14;8.30;99.90
28010;DHT22;15334;49.494;8.410;2023-02-02T01:21:42;8.30;99.90
28010;DHT22;15334;49.494;8.410;2023-02-02T01:24:11;8.30;99.90
28010;DHT22;15334;49.494;8.410;2023-02-02T01:26:40;8.30;99.90
28010;DHT22;15334;49.494;8.410;2023-02-02T01:29:08;8.30;99.90
28010;DHT22;15334;49.494;8.410;2023-02-02T01:31:36;8.30;99.90
28010;DHT22;15334;49.494;8.410;2023-02-02T01:34:05;8.30;99.90
28010;DHT22;15334;49.494;8.410;2023-02-02T01:36:33;8.40;99.90
28010;DHT22;15334;49.494;8.410;2023-02-02T01:39:01;8.30;99.90
28010;DHT22;15334;49.494;8.410;2023-02-02T01:41:29;8.30;99.90
28010;DHT22;15334;49.494;8.410;2023-02-02T01:44:00;8.40;99.90
28010;DHT22;15334;49.494;8.410;2023-02-02T01:46:32;8.40;99.90
28010;DHT22;15334;49.494;8.410;2023-02-02T01:49:07;8.40;99.90
28010;DHT22;15334;49.494;8.410;2023-02-02T01:51:50;8.40;99.90
28010;DHT22;15334;49.494;8.410;2023-02-02T01:54:21;8.40;99.90
28010;DHT22;15334;49.494;8.410;2023-02-02T01:56:56;8.30;99.90
28010;DHT22;15334;49.494;8.410;2023-02-02T01:59:26;8.30;99.90
28010;DHT22;15334;49.494;8.410;2023-02-02T02:01:55;8.40;99.90
28010;DHT22;15334;49.494;8.410;2023-02-02T02:04:24;8.30;99.90
28010;DHT22;15334;49.494;8.410;2023-02-02T02:06:53;8.30;99.90
28010;DHT22;15334;49.494;8.410;2023-02-02T02:09:21;8.30;99.90
28010;DHT22;15334;49.494;8.410;2023-02-02T02:11:51;8.40;99.90
28010;DHT22;15334;49.494;8.410;2023-02-02T02:14:20;8.40;99.90
28010;DHT22;15334;49.494;8.410;2023-02-02T02:17:18;8.40;99.90
28010;DHT22;15334;49.494;8.410;2023-02-02T02:23:47;8.40;99.90
28010;DHT22;15334;49.494;8.410;2023-02-02T02:26:59;8.30;99.90
28010;DHT22;15334;49.494;8.410;2023-02-02T02:29:56;8.30;99.90
28010;DHT22;15334;49.494;8.410;2023-02-02T02:32:37;8.30;99.90
28010;DHT22;15334;49.494;8.410;2023-02-02T02:35:12;8.30;99.90
28010;DHT22;15334;49.494;8.410;2023-02-02T02:37:47;8.40;99.90
28010;DHT22;15334;49.494;8.410;2023-02-02T02:40:21;8.30;99.90
28010;DHT22;15334;49.494;8.410;2023-02-02T02:42:55;8.30;99.90
28010;DHT22;15334;49.494;8.410;2023-02-02T02:45:26;8.40;99.90
28010;DHT22;15334;49.494;8.410;2023-02-02T02:47:57;8.30;99.90
28010;DHT22;15334;49.494;8.410;2023-02-02T02:50:25;8.40;99.90
28010;DHT22;15334;49.494;8.410;2023-02-02T02:52:59;8.40;99.90
28010;DHT22;15334;49.494;8.410;2023-02-02T02:55:38;8.40;99.90
28010;DHT22;15334;49.494;8.410;2023-02-02T02:58:10;8.40;99.90
28010;DHT22;15334;49.494;8.410;2023-02-02T03:01:00;8.40;99.90
28010;DHT22;15334;49.494;8.410;2023-02-02T03:03:44;8.30;99.90
28010;DHT22;15334;49.494;8.410;2023-02-02T03:06:20;8.30;99.90
28010;DHT22;15334;49.494;8.410;2023-02-02T03:08:54;8.30;99.90
28010;DHT22;15334;49.494;8.410;2023-02-02T03:11:23;8.30;99.90
28010;DHT22;15334;49.494;8.410;2023-02-02T03:13:51;8.20;99.90
28010;DHT22;15334;49.494;8.410;2023-02-02T03:16:19;8.20;99.90
28010;DHT22;15334;49.494;8.410;2023-02-02T03:18:49;8.20;99.90
28010;DHT22;15334;49.494;8.410;2023-02-02T03:21:17;8.20;99.90
28010;DHT22;15334;49.494;8.410;2023-02-02T03:23:45;8.20;99.90
28010;DHT22;15334;49.494;8.410;2023-02-02T03:26:13;8.20;99.90
28010;DHT22;15334;49.494;8.410;2023-02-02T03:28:41;8.20;99.90
28010;DHT22;15334;49.494;8.410;2023-02-02T03:31:09;8.20;99.90
28010;DHT22;15334;49.494;8.410;2023-02-02T03:33:37;8.20;99.90
28010;DHT22;15334;49.494;8.410;2023-02-02T03:36:07;8.20;99.90
28010;DHT22;15334;49.494;8.410;2023-02-02T03:38:35;8.20;99.90
28010;DHT22;15334;49.494;8.410;2023-02-02T03:41:04;8.30;99.90
28010;DHT22;15334;49.494;8.410;2023-02-02T03:43:32;8.30;99.90
28010;DHT22;15334;49.494;8.410;2023-02-02T03:46:01;8.30;99.90
28010;DHT22;15334;49.494;8.410;2023-02-02T03:48:33;8.20;99.90
28010;DHT22;15334;49.494;8.410;2023-02-02T03:51:04;8.20;99.90
28010;DHT22;15334;49.494;8.410;2023-02-02T03:53:37;8.20;99.90
28010;DHT22;15334;49.494;8.410;2023-02-02T03:56:06;8.20;99.90
28010;DHT22;15334;49.494;8.410;2023-02-02T03:58:35;8.20;99.90
28010;DHT22;15334;49.494;8.410;2023-02-02T04:01:04;8.20;99.90
28010;DHT22;15334;49.494;8.410;2023-02-02T04:03:33;8.20;99.90
28010;DHT22;15334;49.494;8.410;2023-02-02T04:06:01;8.20;99.90
28010;DHT22;15334;49.494;8.410;2023-02-02T04:08:29;8.20;99.90
28010;DHT22;15334;49.494;8.410;2023-02-02T04:10:59;8.30;99.90
28010;DHT22;15334;49.494;8.410;2023-02-02T04:13:27;8.30;99.90
28010;DHT22;15334;49.494;8.410;2023-02-02T04:15:56;8.30;99.90
28010;DHT22;15334;49.494;8.410;2023-02-02T04:18:28;8.30;99.90
28010;DHT22;15334;49.494;8.410;2023-02-02T04:20:57;8.30;99.90
28010;DHT22;15334;49.494;8.410;2023-02-02T04:23:26;8.30;99.90
28010;DHT22;15334;49.494;8.410;2023-02-02T04:25:55;8.30;99.90
28010;DHT22;15334;49.494;8.410;2023-02-02T04:28:26;8.30;99.90
28010;DHT22;15334;49.494;8.410;2023-02-02T04:30:55;8.30;99.90
28010;DHT22;15334;49.494;8.410;2023-02-02T04:33:25;8.40;99.90
28010;DHT22;15334;49.494;8.410;2023-02-02T04:35:54;8.30;99.90
28010;DHT22;15334;49.494;8.410;2023-02-02T04:38:22;8.30;99.90
28010;DHT22;15334;49.494;8.410;2023-02-02T04:40:52;8.30;99.90
28010;DHT22;15334;49.494;8.410;2023-02-02T04:43:21;8.30;99.90
28010;DHT22;15334;49.494;8.410;2023-02-02T04:45:55;8.30;99.90
28010;DHT22;15334;49.494;8.410;2023-02-02T04:48:25;8.40;99.90
28010;DHT22;15334;49.494;8.410;2023-02-02T04:51:01;8.40;99.90
28010;DHT22;15334;49.494;8.410;2023-02-02T04:53:33;8.40;99.90
28010;DHT22;15334;49.494;8.410;2023-02-02T04:56:04;8.40;99.90
28010;DHT22;15334;49.494;8.410;2023-02-02T04:58:33;8.40;99.90
28010;DHT22;15334;49.494;8.410;2023-02-02T05:01:09;8.40;99.90
28010;DHT22;15334;49.494;8.410;2023-02-02T05:03:38;8.40;99.90
28010;DHT22;15334;49.494;8.410;2023-02-02T05:06:07;8.40;99.90
28010;DHT22;15334;49.494;8.410;2023-02-02T05:08:35;8.40;99.90
28010;DHT22;15334;49.494;8.410;2023-02-02T05:11:07;8.40;99.90
28010;DHT22;15334;49.494;8.410;2023-02-02T05:13:36;8.40;99.90
28010;DHT22;15334;49.494;8.410;2023-02-02T05:16:06;8.40;99.90
28010;DHT22;15334;49.494;8.410;2023-02-02T05:18:35;8.40;99.90
28010;DHT22;15334;49.494;8.410;2023-02-02T05:21:09;8.40;99.90
28010;DHT22;15334;49.494;8.410;2023-02-02T05:23:40;8.40;99.90
28010;DHT22;15334;49.494;8.410;2023-02-02T05:26:11;8.40;99.90
28010;DHT22;15334;49.494;8.410;2023-02-02T05:28:45;8.40;99.90
28010;DHT22;15334;49.494;8.410;2023-02-02T05:31:14;8.40;99.90
28010;DHT22;15334;49.494;8.410;2023-02-02T05:33:44;8.40;99.90
28010;DHT22;15334;49.494;8.410;2023-02-02T05:36:12;8.40;99.90
28010;DHT22;15334;49.494;8.410;2023-02-02T05:38:41;8.40;99.90
28010;DHT22;15334;49.494;8.410;2023-02-02T05:41:11;8.40;99.90
28010;DHT22;15334;49.494;8.410;2023-02-02T05:43:39;8.40;99.90
28010;DHT22;15334;49.494;8.410;2023-02-02T05:46:09;8.30;99.90
28010;DHT22;15334;49.494;8.410;2023-02-02T05:48:38;8.40;99.90
28010;DHT22;15334;49.494;8.410;2023-02-02T05:51:15;8.40;99.90
28010;DHT22;15334;49.494;8.410;2023-02-02T05:53:47;8.40;99.90
28010;DHT22;15334;49.494;8.410;2023-02-02T05:56:18;8.40;99.90
28010;DHT22;15334;49.494;8.410;2023-02-02T05:58:46;8.40;99.90
28010;DHT22;15334;49.494;8.410;2023-02-02T06:01:17;8.40;99.90
28010;DHT22;15334;49.494;8.410;2023-02-02T06:03:47;8.40;99.90
28010;DHT22;15334;49.494;8.410;2023-02-02T06:06:17;8.30;99.90
28010;DHT22;15334;49.494;8.410;2023-02-02T06:08:45;8.30;99.90
28010;DHT22;15334;49.494;8.410;2023-02-02T06:11:15;8.30;99.90
28010;DHT22;15334;49.494;8.410;2023-02-02T06:13:43;8.30;99.90
28010;DHT22;15334;49.494;8.410;2023-02-02T06:16:12;8.30;99.90
28010;DHT22;15334;49.494;8.410;2023-02-02T06:18:40;8.30;99.90
28010;DHT22;15334;49.494;8.410;2023-02-02T06:21:09;8.30;99.90
28010;DHT22;15334;49.494;8.410;2023-02-02T06:23:38;8.30;99.90
28010;DHT22;15334;49.494;8.410;2023-02-02T06:26:11;8.40;99.90
28010;DHT22;15334;49.494;8.410;2023-02-02T06:28:39;8.40;99.90
28010;DHT22;15334;49.494;8.410;2023-02-02T06:31:09;8.30;99.90
28010;DHT22;15334;49.494;8.410;2023-02-02T06:33:38;8.30;99.90
28010;DHT22;15334;49.494;8.410;2023-02-02T06:36:06;8.30;99.90
28010;DHT22;15334;49.494;8.410;2023-02-02T06:38:34;8.30;99.90
28010;DHT22;15334;49.494;8.410;2023-02-02T06:41:04;8.30;99.90
28010;DHT22;15334;49.494;8.410;2023-02-02T06:43:32;8.30;99.90
28010;DHT22;15334;49.494;8.410;2023-02-02T06:46:00;8.30;99.90
28010;DHT22;15334;49.494;8.410;2023-02-02T06:48:28;8.30;99.90
28010;DHT22;15334;49.494;8.410;2023-02-02T06:50:57;8.30;99.90
28010;DHT22;15334;49.494;8.410;2023-02-02T06:53:26;8.30;99.90
28010;DHT22;15334;49.494;8.410;2023-02-02T06:55:54;8.30;99.90
28010;DHT22;15334;49.494;8.410;2023-02-02T06:58:27;8.30;99.90
28010;DHT22;15334;49.494;8.410;2023-02-02T07:01:00;8.30;99.90
28010;DHT22;15334;49.494;8.410;2023-02-02T07:03:32;8.30;99.90
28010;DHT22;15334;49.494;8.410;2023-02-02T07:06:10;8.30;99.90
28010;DHT22;15334;49.494;8.410;2023-02-02T07:08:38;8.20;99.90
28010;DHT22;15334;49.494;8.410;2023-02-02T07:11:06;8.30;99.90
28010;DHT22;15334;49.494;8.410;2023-02-02T07:13:43;8.20;99.90
28010;DHT22;15334;49.494;8.410;2023-02-02T07:16:14;8.20;99.90
28010;DHT22;15334;49.494;8.410;2023-02-02T07:18:43;8.20;99.90
28010;DHT22;15334;49.494;8.410;2023-02-02T07:21:16;8.20;99.90
28010;DHT22;15334;49.494;8.410;2023-02-02T07:23:44;8.20;99.90
28010;DHT22;15334;49.494;8.410;2023-02-02T07:26:14;8.20;99.90
28010;DHT22;15334;49.494;8.410;2023-02-02T07:28:45;8.30;99.90
28010;DHT22;15334;49.494;8.410;2023-02-02T07:31:15;8.30;99.90
28010;DHT22;15334;49.494;8.410;2023-02-02T07:33:44;8.30;99.90
28010;DHT22;15334;49.494;8.410;2023-02-02T07:36:14;8.30;99.90
28010;DHT22;15334;49.494;8.410;2023-02-02T07:38:43;8.30;99.90
28010;DHT22;15334;49.494;8.410;2023-02-02T07:41:12;8.30;99.90
28010;DHT22;15334;49.494;8.410;2023-02-02T07:43:45;8.30;99.90
28010;DHT22;15334;49.494;8.410;2023-02-02T07:46:17;8.30;99.90
28010;DHT22;15334;49.494;8.410;2023-02-02T07:48:45;8.30;99.90
28010;DHT22;15334;49.494;8.410;2023-02-02T07:51:15;8.30;99.90
28010;DHT22;15334;49.494;8.410;2023-02-02T07:53:43;8.30;99.90
28010;DHT22;15334;49.494;8.410;2023-02-02T07:56:13;8.30;99.90
28010;DHT22;15334;49.494;8.410;2023-02-02T07:58:43;8.30;99.90
28010;DHT22;15334;49.494;8.410;2023-02-02T08:01:13;8.40;99.90
28010;DHT22;15334;49.494;8.410;2023-02-02T08:03:42;8.40;99.90
28010;DHT22;15334;49.494;8.410;2023-02-02T08:06:12;8.40;99.90
28010;DHT22;15334;49.494;8.410;2023-02-02T08:08:41;8.40;99.90
28010;DHT22;15334;49.494;8.410;2023-02-02T08:11:11;8.30;99.90
28010;DHT22;15334;49.494;8.410;2023-02-02T08:13:40;8.40;99.90
28010;DHT22;15334;49.494;8.410;2023-02-02T08:16:10;8.40;99.90
28010;DHT22;15334;49.494;8.410;2023-02-02T08:18:39;8.40;99.90
28010;DHT22;15334;49.494;8.410;2023-02-02T08:21:08;8.50;99.90
28010;DHT22;15334;49.494;8.410;2023-02-02T08:23:37;8.40;99.90
28010;DHT22;15334;49.494;8.410;2023-02-02T08:26:07;8.40;99.90
28010;DHT22;15334;49.494;8.410;2023-02-02T08:28:36;8.40;99.90
28010;DHT22;15334;49.494;8.410;2023-02-02T08:31:06;8.50;99.90
28010;DHT22;15334;49.494;8.410;2023-02-02T08:33:36;8.50;99.90
28010;DHT22;15334;49.494;8.410;2023-02-02T08:36:10;8.50;99.90
28010;DHT22;15334;49.494;8.410;2023-02-02T08:38:39;8.50;99.90
28010;DHT22;15334;49.494;8.410;2023-02-02T08:41:08;8.60;99.90
28010;DHT22;15334;49.494;8.410;2023-02-02T08:43:37;8.60;99.90
28010;DHT22;15334;49.494;8.410;2023-02-02T08:46:08;8.60;99.90
28010;DHT22;15334;49.494;8.410;2023-02-02T08:48:38;8.60;99.90
28010;DHT22;15334;49.494;8.410;2023-02-02T08:51:09;8.60;99.90
28010;DHT22;15334;49.494;8.410;2023-02-02T08:53:39;8.70;99.90
28010;DHT22;15334;49.494;8.410;2023-02-02T08:56:10;8.70;99.90
28010;DHT22;15334;49.494;8.410;2023-02-02T08:58:43;8.70;99.90
28010;DHT22;15334;49.494;8.410;2023-02-02T09:01:14;8.70;99.90
28010;DHT22;15334;49.494;8.410;2023-02-02T09:03:47;8.70;99.90
28010;DHT22;15334;49.494;8.410;2023-02-02T09:06:17;8.70;99.90
28010;DHT22;15334;49.494;8.410;2023-02-02T09:08:45;8.80;99.90
28010;DHT22;15334;49.494;8.410;2023-02-02T09:11:17;8.80;99.90
28010;DHT22;15334;49.494;8.410;2023-02-02T09:13:51;8.80;99.90
28010;DHT22;15334;49.494;8.410;2023-02-02T09:16:22;8.90;99.90
28010;DHT22;15334;49.494;8.410;2023-02-02T09:18:52;8.90;99.90
28010;DHT22;15334;49.494;8.410;2023-02-02T09:21:21;8.90;99.90
28010;DHT22;15334;49.494;8.410;2023-02-02T09:23:50;9.00;99.90
28010;DHT22;15334;49.494;8.410;2023-02-02T09:26:20;9.00;99.90
28010;DHT22;15334;49.494;8.410;2023-02-02T09:28:52;9.10;99.90
28010;DHT22;15334;49.494;8.410;2023-02-02T09:31:23;9.10;99.90
28010;DHT22;15334;49.494;8.410;2023-02-02T09:34:00;9.10;99.90
28010;DHT22;15334;49.494;8.410;2023-02-02T09:36:29;9.10;99.90
28010;DHT22;15334;49.494;8.410;2023-02-02T09:38:57;9.10;99.90
28010;DHT22;15334;49.494;8.410;2023-02-02T09:41:57;9.10;99.90
28010;DHT22;15334;49.494;8.410;2023-02-02T09:44:42;9.20;99.90
28010;DHT22;15334;49.494;8.410;2023-02-02T09:47:18;9.20;99.90
28010;DHT22;15334;49.494;8.410;2023-02-02T09:49:55;9.20;99.90
28010;DHT22;15334;49.494;8.410;2023-02-02T09:52:28;9.20;99.90
28010;DHT22;15334;49.494;8.410;2023-02-02T09:54:59;9.30;99.90
28010;DHT22;15334;49.494;8.410;2023-02-02T09:57:34;9.20;99.90
28010;DHT22;15334;49.494;8.410;2023-02-02T10:00:05;9.30;99.90
28010;DHT22;15334;49.494;8.410;2023-02-02T10:02:38;9.30;99.90
28010;DHT22;15334;49.494;8.410;2023-02-02T10:05:16;9.30;99.90
28010;DHT22;15334;49.494;8.410;2023-02-02T10:07:49;9.30;99.90
28010;DHT22;15334;49.494;8.410;2023-02-02T10:10:21;9.30;99.90
28010;DHT22;15334;49.494;8.410;2023-02-02T10:12:55;9.30;99.90
28010;DHT22;15334;49.494;8.410;2023-02-02T10:15:32;9.30;99.90
28010;DHT22;15334;49.494;8.410;2023-02-02T10:18:05;9.30;99.90
28010;DHT22;15334;49.494;8.410;2023-02-02T10:20:43;9.20;99.90
28010;DHT22;15334;49.494;8.410;2023-02-02T10:23:24;9.30;99.90
28010;DHT22;15334;49.494;8.410;2023-02-02T10:25:59;9.30;99.90
28010;DHT22;15334;49.494;8.410;2023-02-02T10:28:42;9.20;99.90
28010;DHT22;15334;49.494;8.410;2023-02-02T10:31:17;9.20;99.90
28010;DHT22;15334;49.494;8.410;2023-02-02T10:34:01;9.20;99.90
28010;DHT22;15334;49.494;8.410;2023-02-02T10:36:43;9.20;99.90
28010;DHT22;15334;49.494;8.410;2023-02-02T10:39:21;9.20;99.90
28010;DHT22;15334;49.494;8.410;2023-02-02T10:41:58;9.20;99.90
28010;DHT22;15334;49.494;8.410;2023-02-02T10:44:34;9.10;99.90
28010;DHT22;15334;49.494;8.410;2023-02-02T10:47:05;9.20;99.90
28010;DHT22;15334;49.494;8.410;2023-02-02T10:49:37;9.20;99.90
28010;DHT22;15334;49.494;8.410;2023-02-02T10:52:15;9.30;99.90
28010;DHT22;15334;49.494;8.410;2023-02-02T10:54:49;9.30;99.90
28010;DHT22;15334;49.494;8.410;2023-02-02T10:57:37;9.30;99.90
28010;DHT22;15334;49.494;8.410;2023-02-02T11:00:18;9.40;99.90
28010;DHT22;15334;49.494;8.410;2023-02-02T11:02:49;9.50;99.90
28010;DHT22;15334;49.494;8.410;2023-02-02T11:05:21;9.60;99.90
28010;DHT22;15334;49.494;8.410;2023-02-02T11:08:17;9.70;99.90
28010;DHT22;15334;49.494;8.410;2023-02-02T11:10:49;9.70;99.90
28010;DHT22;15334;49.494;8.410;2023-02-02T11:13:26;9.80;99.90
28010;DHT22;15334;49.494;8.410;2023-02-02T11:16:26;9.80;99.90
28010;DHT22;15334;49.494;8.410;2023-02-02T11:19:30;9.90;99.90
28010;DHT22;15334;49.494;8.410;2023-02-02T11:22:01;10.00;99.90
28010;DHT22;15334;49.494;8.410;2023-02-02T11:24:36;10.00;99.90
28010;DHT22;15334;49.494;8.410;2023-02-02T11:27:12;10.10;99.90
28010;DHT22;15334;49.494;8.410;2023-02-02T11:29:42;10.30;99.90
28010;DHT22;15334;49.494;8.410;2023-02-02T11:32:18;10.40;99.90
28010;DHT22;15334;49.494;8.410;2023-02-02T11:34:47;10.40;99.90
28010;DHT22;15334;49.494;8.410;2023-02-02T11:37:20;10.30;99.90
28010;DHT22;15334;49.494;8.410;2023-02-02T11:39:49;10.30;99.90
28010;DHT22;15334;49.494;8.410;2023-02-02T11:42:21;10.20;99.90
28010;DHT22;15334;49.494;8.410;2023-02-02T11:44:52;10.10;99.90
28010;DHT22;15334;49.494;8.410;2023-02-02T11:47:24;10.10;99.90
28010;DHT22;15334;49.494;8.410;2023-02-02T11:49:53;10.10;99.90
28010;DHT22;15334;49.494;8.410;2023-02-02T11:52:26;10.00;99.90
28010;DHT22;15334;49.494;8.410;2023-02-02T11:55:01;9.90;99.90
28010;DHT22;15334;49.494;8.410;2023-02-02T11:57:29;9.90;99.90
28010;DHT22;15334;49.494;8.410;2023-02-02T12:00:15;10.00;99.90
28010;DHT22;15334;49.494;8.410;2023-02-02T12:02:46;10.00;99.90
28010;DHT22;15334;49.494;8.410;2023-02-02T12:05:33;10.10;99.90
28010;DHT22;15334;49.494;8.410;2023-02-02T12:08:02;10.30;99.90
28010;DHT22;15334;49.494;8.410;2023-02-02T12:10:37;10.30;99.90
28010;DHT22;15334;49.494;8.410;2023-02-02T12:13:09;10.40;99.90
28010;DHT22;15334;49.494;8.410;2023-02-02T12:15:46;10.50;99.90
28010;DHT22;15334;49.494;8.410;2023-02-02T12:18:37;10.50;99.90
28010;DHT22;15334;49.494;8.410;2023-02-02T12:21:20;10.70;99.90
28010;DHT22;15334;49.494;8.410;2023-02-02T12:24:16;10.90;99.90
28010;DHT22;15334;49.494;8.410;2023-02-02T12:26:56;10.90;99.90
28010;DHT22;15334;49.494;8.410;2023-02-02T12:29:40;10.80;99.90
28010;DHT22;15334;49.494;8.410;2023-02-02T12:32:20;10.50;99.90
28010;DHT22;15334;49.494;8.410;2023-02-02T12:35:02;10.40;99.90
28010;DHT22;15334;49.494;8.410;2023-02-02T12:37:43;10.40;99.90
28010;DHT22;15334;49.494;8.410;2023-02-02T12:40:31;10.20;99.90
28010;DHT22;15334;49.494;8.410;2023-02-02T12:43:10;10.20;99.90
28010;DHT22;15334;49.494;8.410;2023-02-02T12:46:07;10.30;99.90
28010;DHT22;15334;49.494;8.410;2023-02-02T12:48:45;10.40;99.90
28010;DHT22;15334;49.494;8.410;2023-02-02T12:51:32;10.60;99.90
28010;DHT22;15334;49.494;8.410;2023-02-02T12:54:26;10.80;99.90
28010;DHT22;15334;49.494;8.410;2023-02-02T12:57:09;10.90;99.90
28010;DHT22;15334;49.494;8.410;2023-02-02T12:59:58;11.00;99.90
28010;DHT22;15334;49.494;8.410;2023-02-02T13:02:34;10.90;99.90
28010;DHT22;15334;49.494;8.410;2023-02-02T13:05:27;11.10;99.90
28010;DHT22;15334;49.494;8.410;2023-02-02T13:07:56;11.30;99.90
28010;DHT22;15334;49.494;8.410;2023-02-02T13:10:27;11.30;99.90
28010;DHT22;15334;49.494;8.410;2023-02-02T13:12:59;11.40;99.90
28010;DHT22;15334;49.494;8.410;2023-02-02T13:15:33;11.30;99.90
28010;DHT22;15334;49.494;8.410;2023-02-02T13:18:09;11.20;99.90
28010;DHT22;15334;49.494;8.410;2023-02-02T13:20:42;11.40;99.90
28010;DHT22;15334;49.494;8.410;2023-02-02T13:23:14;11.30;99.90
28010;DHT22;15334;49.494;8.410;2023-02-02T13:25:47;11.00;99.90
28010;DHT22;15334;49.494;8.410;2023-02-02T13:28:24;10.90;99.90
28010;DHT22;15334;49.494;8.410;2023-02-02T13:31:01;10.90;99.90
28010;DHT22;15334;49.494;8.410;2023-02-02T13:33:34;10.80;99.90
28010;DHT22;15334;49.494;8.410;2023-02-02T13:36:07;10.90;99.90
28010;DHT22;15334;49.494;8.410;2023-02-02T13:38:36;11.00;99.90
28010;DHT22;15334;49.494;8.410;2023-02-02T13:41:09;10.80;99.90
28010;DHT22;15334;49.494;8.410;2023-02-02T13:43:45;10.80;99.90
28010;DHT22;15334;49.494;8.410;2023-02-02T13:46:25;10.80;99.90
28010;DHT22;15334;49.494;8.410;2023-02-02T13:49:02;10.70;99.90
28010;DHT22;15334;49.494;8.410;2023-02-02T13:51:50;10.50;99.90
28010;DHT22;15334;49.494;8.410;2023-02-02T13:54:48;10.50;99.90
28010;DHT22;15334;49.494;8.410;2023-02-02T13:57:39;10.50;99.90
28010;DHT22;15334;49.494;8.410;2023-02-02T14:00:15;10.40;99.90
28010;DHT22;15334;49.494;8.410;2023-02-02T14:02:50;10.40;99.90
28010;DHT22;15334;49.494;8.410;2023-02-02T14:05:23;10.30;99.90
28010;DHT22;15334;49.494;8.410;2023-02-02T14:07:59;10.20;99.90
28010;DHT22;15334;49.494;8.410;2023-02-02T14:10:33;10.30;99.90
28010;DHT22;15334;49.494;8.410;2023-02-02T14:13:12;10.40;99.90
28010;DHT22;15334;49.494;8.410;2023-02-02T14:15:54;10.40;99.90
28010;DHT22;15334;49.494;8.410;2023-02-02T14:21:59;10.50;99.90
28010;DHT22;15334;49.494;8.410;2023-02-02T14:24:46;10.40;99.90
28010;DHT22;15334;49.494;8.410;2023-02-02T14:27:53;10.30;99.90
28010;DHT22;15334;49.494;8.410;2023-02-02T14:30:31;10.20;99.90
28010;DHT22;15334;49.494;8.410;2023-02-02T14:33:36;10.20;99.90
28010;DHT22;15334;49.494;8.410;2023-02-02T14:36:14;10.10;99.90
28010;DHT22;15334;49.494;8.410;2023-02-02T14:39:07;10.00;99.90
28010;DHT22;15334;49.494;8.410;2023-02-02T14:41:57;10.10;99.90
28010;DHT22;15334;49.494;8.410;2023-02-02T14:45:15;10.10;99.90
28010;DHT22;15334;49.494;8.410;2023-02-02T14:47:51;10.20;99.90
28010;DHT22;15334;49.494;8.410;2023-02-02T14:50:26;10.10;99.90
28010;DHT22;15334;49.494;8.410;2023-02-02T14:53:00;10.10;99.90
28010;DHT22;15334;49.494;8.410;2023-02-02T14:55:31;10.20;99.90
28010;DHT22;15334;49.494;8.410;2023-02-02T14:58:01;10.20;99.90
28010;DHT22;15334;49.494;8.410;2023-02-02T15:00:33;10.20;99.90
28010;DHT22;15334;49.494;8.410;2023-02-02T15:03:34;10.20;99.90
28010;DHT22;15334;49.494;8.410;2023-02-02T15:06:05;10.20;99.90
28010;DHT22;15334;49.494;8.410;2023-02-02T15:08:41;10.30;99.90
28010;DHT22;15334;49.494;8.410;2023-02-02T15:11:11;10.30;99.90
28010;DHT22;15334;49.494;8.410;2023-02-02T15:14:14;10.30;99.90
28010;DHT22;15334;49.494;8.410;2023-02-02T15:16:44;10.20;99.90
28010;DHT22;15334;49.494;8.410;2023-02-02T15:19:23;10.20;99.90
28010;DHT22;15334;49.494;8.410;2023-02-02T15:21:56;10.20;99.90
28010;DHT22;15334;49.494;8.410;2023-02-02T15:24:29;10.20;99.90
28010;DHT22;15334;49.494;8.410;2023-02-02T15:27:00;10.10;99.90
28010;DHT22;15334;49.494;8.410;2023-02-02T15:29:36;10.00;99.90
28010;DHT22;15334;49.494;8.410;2023-02-02T15:32:14;9.90;99.90
28010;DHT22;15334;49.494;8.410;2023-02-02T15:34:46;9.90;99.90
28010;DHT22;15334;49.494;8.410;2023-02-02T15:37:19;9.90;99.90
28010;DHT22;15334;49.494;8.410;2023-02-02T15:39:51;9.90;99.90
28010;DHT22;15334;49.494;8.410;2023-02-02T15:42:26;9.90;99.90
28010;DHT22;15334;49.494;8.410;2023-02-02T15:45:37;9.90;99.90
28010;DHT22;15334;49.494;8.410;2023-02-02T15:48:18;9.80;99.90
28010;DHT22;15334;49.494;8.410;2023-02-02T15:50:51;9.80;99.90
28010;DHT22;15334;49.494;8.410;2023-02-02T15:53:24;9.80;99.90
28010;DHT22;15334;49.494;8.410;2023-02-02T15:55:55;9.80;99.90
28010;DHT22;15334;49.494;8.410;2023-02-02T15:58:32;9.80;99.90
28010;DHT22;15334;49.494;8.410;2023-02-02T16:01:03;9.80;99.90
28010;DHT22;15334;49.494;8.410;2023-02-02T16:03:42;9.80;99.90
28010;DHT22;15334;49.494;8.410;2023-02-02T16:06:12;9.90;99.90
28010;DHT22;15334;49.494;8.410;2023-02-02T16:08:40;9.90;99.90
28010;DHT22;15334;49.494;8.410;2023-02-02T16:11:12;9.80;99.90
28010;DHT22;15334;49.494;8.410;2023-02-02T16:13:43;9.80;99.90
28010;DHT22;15334;49.494;8.410;2023-02-02T16:16:27;9.80;99.90
28010;DHT22;15334;49.494;8.410;2023-02-02T16:19:04;9.80;99.90
28010;DHT22;15334;49.494;8.410;2023-02-02T16:21:34;9.70;99.90
28010;DHT22;15334;49.494;8.410;2023-02-02T16:24:04;9.70;99.90
28010;DHT22;15334;49.494;8.410;2023-02-02T16:26:34;9.70;99.90
28010;DHT22;15334;49.494;8.410;2023-02-02T16:29:04;9.70;99.90
28010;DHT22;15334;49.494;8.410;2023-02-02T16:31:34;9.70;99.90